createdAt,value
2018-07-30T00:00:39.027Z,0.00
2018-07-30T00:01:39.062Z,0.00
2018-07-30T00:02:38.855Z,0.00
2018-07-30T00:03:38.779Z,0.00
2018-07-30T00:04:38.680Z,0.00
2018-07-30T00:05:38.590Z,0.00
2018-07-30T00:06:38.538Z,0.00
2018-07-30T00:07:38.419Z,0.00
2018-07-30T00:08:38.337Z,0.00
2018-07-30T00:09:38.343Z,0.00
2018-07-30T00:10:38.163Z,0.00
2018-07-30T00:11:38.107Z,0.00
2018-07-30T00:12:37.994Z,0.00
2018-07-30T00:13:37.908Z,0.00
2018-07-30T00:14:37.822Z,0.00
2018-07-30T00:15:37.735Z,0.00
2018-07-30T00:16:37.682Z,0.00
2018-07-30T00:17:37.562Z,0.00
2018-07-30T00:18:37.476Z,0.00
2018-07-30T00:19:37.391Z,0.00
2018-07-30T00:20:37.309Z,0.00
2018-07-30T00:21:37.253Z,0.00
2018-07-30T00:22:37.133Z,0.00
2018-07-30T00:23:37.046Z,0.00
2018-07-30T00:24:36.960Z,0.00
2018-07-30T00:25:36.893Z,0.00
2018-07-30T00:26:36.824Z,0.00
2018-07-30T00:27:36.708Z,0.00
2018-07-30T00:28:36.617Z,0.00
2018-07-30T00:29:36.536Z,0.00
2018-07-30T00:30:36.450Z,0.00
2018-07-30T00:31:36.397Z,0.00
2018-07-30T00:32:36.278Z,0.00
2018-07-30T00:33:36.195Z,0.00
2018-07-30T00:34:36.108Z,0.00
2018-07-30T00:35:36.017Z,0.00
2018-07-30T00:36:35.963Z,0.00
2018-07-30T00:37:35.845Z,0.00
2018-07-30T00:38:35.761Z,0.00
2018-07-30T00:39:35.677Z,0.00
2018-07-30T00:40:35.590Z,0.00
2018-07-30T00:41:35.535Z,0.00
2018-07-30T00:42:35.417Z,0.00
2018-07-30T00:43:35.332Z,0.00
2018-07-30T00:44:35.248Z,0.00
2018-07-30T00:45:35.161Z,0.00
2018-07-30T00:46:35.106Z,0.00
2018-07-30T00:47:34.992Z,0.00
2018-07-30T00:48:34.902Z,0.00
2018-07-30T00:49:34.816Z,0.00
2018-07-30T00:50:34.733Z,0.00
2018-07-30T00:51:34.675Z,0.00
2018-07-30T00:52:34.558Z,0.00
2018-07-30T00:53:34.478Z,0.00
2018-07-30T00:54:34.391Z,0.00
2018-07-30T00:55:34.303Z,0.00
2018-07-30T00:56:34.249Z,0.00
2018-07-30T00:57:34.131Z,0.00
2018-07-30T00:58:34.043Z,0.00
2018-07-30T00:59:33.959Z,0.00
2018-07-30T01:00:33.871Z,0.00
2018-07-30T01:01:33.819Z,0.00
2018-07-30T01:02:33.703Z,0.00
2018-07-30T01:03:33.618Z,0.00
2018-07-30T01:04:33.531Z,0.00
2018-07-30T01:05:33.447Z,0.00
2018-07-30T01:06:33.395Z,0.00
2018-07-30T01:07:33.317Z,0.00
2018-07-30T01:08:33.186Z,0.00
2018-07-30T01:09:33.100Z,0.00
2018-07-30T01:10:33.015Z,0.00
2018-07-30T01:11:32.966Z,0.00
2018-07-30T01:12:32.845Z,0.00
2018-07-30T01:13:32.758Z,0.00
2018-07-30T01:14:32.673Z,0.00
2018-07-30T01:15:32.586Z,0.00
2018-07-30T01:16:32.504Z,0.00
2018-07-30T01:17:32.444Z,0.00
2018-07-30T01:18:32.331Z,0.00
2018-07-30T01:19:32.245Z,0.00
2018-07-30T01:20:32.167Z,0.00
2018-07-30T01:21:32.117Z,0.00
2018-07-30T01:22:32.049Z,0.00
2018-07-30T01:23:31.900Z,0.00
2018-07-30T01:24:31.813Z,0.00
2018-07-30T01:25:31.729Z,0.00
2018-07-30T01:26:31.643Z,0.00
2018-07-30T01:27:31.582Z,0.00
2018-07-30T01:28:31.469Z,0.00
2018-07-30T01:29:31.383Z,0.00
2018-07-30T01:30:31.296Z,0.00
2018-07-30T01:31:31.226Z,0.00
2018-07-30T01:32:31.273Z,0.00
2018-07-30T01:33:31.043Z,0.00
2018-07-30T01:34:30.953Z,0.00
2018-07-30T01:35:30.870Z,0.00
2018-07-30T01:36:30.783Z,0.00
2018-07-30T01:37:30.723Z,0.00
2018-07-30T01:38:30.611Z,0.00
2018-07-30T01:39:30.618Z,0.00
2018-07-30T01:40:30.435Z,0.00
2018-07-30T01:41:30.354Z,0.00
2018-07-30T01:42:30.297Z,0.00
2018-07-30T01:43:30.181Z,0.00
2018-07-30T01:44:30.095Z,0.00
2018-07-30T01:45:30.009Z,0.00
2018-07-30T01:46:30.016Z,0.00
2018-07-30T01:47:29.867Z,0.00
2018-07-30T01:48:29.748Z,0.00
2018-07-30T01:49:29.666Z,0.00
2018-07-30T01:50:29.581Z,0.00
2018-07-30T01:51:29.491Z,0.00
2018-07-30T01:52:29.434Z,0.00
2018-07-30T01:53:29.428Z,0.00
2018-07-30T01:54:29.235Z,0.00
2018-07-30T01:55:29.170Z,0.00
2018-07-30T01:56:29.060Z,0.00
2018-07-30T01:57:29.012Z,0.00
2018-07-30T01:58:28.893Z,0.00
2018-07-30T01:59:28.806Z,0.00
2018-07-30T02:00:28.807Z,0.00
2018-07-30T02:01:28.632Z,0.00
2018-07-30T02:02:28.579Z,0.00
2018-07-30T02:03:28.460Z,0.00
2018-07-30T02:04:28.375Z,0.00
2018-07-30T02:05:28.288Z,0.00
2018-07-30T02:06:28.200Z,0.00
2018-07-30T02:07:28.241Z,0.00
2018-07-30T02:08:28.034Z,0.00
2018-07-30T02:09:27.945Z,0.00
2018-07-30T02:10:27.861Z,0.00
2018-07-30T02:11:27.771Z,0.00
2018-07-30T02:12:27.717Z,0.00
2018-07-30T02:13:27.599Z,0.00
2018-07-30T02:14:27.608Z,0.00
2018-07-30T02:15:27.444Z,0.00
2018-07-30T02:16:27.342Z,0.00
2018-07-30T02:17:27.287Z,0.00
2018-07-30T02:18:27.175Z,0.00
2018-07-30T02:19:27.084Z,0.00
2018-07-30T02:20:26.997Z,0.00
2018-07-30T02:21:27.058Z,0.00
2018-07-30T02:22:26.856Z,0.00
2018-07-30T02:23:26.740Z,0.00
2018-07-30T02:24:26.657Z,0.00
2018-07-30T02:25:26.576Z,0.00
2018-07-30T02:26:27.034Z,0.00
2018-07-30T02:27:26.426Z,0.00
2018-07-30T02:28:26.404Z,0.00
2018-07-30T02:29:26.225Z,0.00
2018-07-30T02:30:26.141Z,0.00
2018-07-30T02:31:26.054Z,0.00
2018-07-30T02:32:26.045Z,0.00
2018-07-30T02:33:25.879Z,0.00
2018-07-30T02:34:25.797Z,0.00
2018-07-30T02:35:25.806Z,0.00
2018-07-30T02:36:25.620Z,0.00
2018-07-30T02:37:25.583Z,0.00
2018-07-30T02:38:25.457Z,0.00
2018-07-30T02:39:25.375Z,0.00
2018-07-30T02:40:25.277Z,0.00
2018-07-30T02:41:25.195Z,0.00
2018-07-30T02:42:25.138Z,0.00
2018-07-30T02:43:25.019Z,0.00
2018-07-30T02:44:24.936Z,0.00
2018-07-30T02:45:24.847Z,0.00
2018-07-30T02:46:24.765Z,0.00
2018-07-30T02:47:24.679Z,0.00
2018-07-30T02:48:24.616Z,0.00
2018-07-30T02:49:24.503Z,0.00
2018-07-30T02:50:24.415Z,0.00
2018-07-30T02:51:24.328Z,0.00
2018-07-30T02:52:24.277Z,0.00
2018-07-30T02:53:24.158Z,0.00
2018-07-30T02:54:24.076Z,0.00
2018-07-30T02:55:23.984Z,0.00
2018-07-30T02:56:23.994Z,0.00
2018-07-30T02:57:23.816Z,0.00
2018-07-30T02:58:23.759Z,0.00
2018-07-30T02:59:23.640Z,0.00
2018-07-30T03:00:23.554Z,4.00
2018-07-30T03:01:23.466Z,4.00
2018-07-30T03:02:23.384Z,4.00
2018-07-30T03:03:23.326Z,0.00
2018-07-30T03:04:23.207Z,4.00
2018-07-30T03:05:23.125Z,4.00
2018-07-30T03:06:23.038Z,4.00
2018-07-30T03:07:22.954Z,8.00
2018-07-30T03:08:22.894Z,8.00
2018-07-30T03:09:22.820Z,8.00
2018-07-30T03:10:22.691Z,8.00
2018-07-30T03:11:22.610Z,12.00
2018-07-30T03:12:22.520Z,16.00
2018-07-30T03:13:22.464Z,16.00
2018-07-30T03:14:22.347Z,20.00
2018-07-30T03:15:22.262Z,24.00
2018-07-30T03:16:22.194Z,28.00
2018-07-30T03:17:22.089Z,32.00
2018-07-30T03:18:22.032Z,36.00
2018-07-30T03:19:21.915Z,40.00
2018-07-30T03:20:21.832Z,48.00
2018-07-30T03:21:21.742Z,56.00
2018-07-30T03:22:21.709Z,60.00
2018-07-30T03:23:21.603Z,68.00
2018-07-30T03:24:21.487Z,76.00
2018-07-30T03:25:21.399Z,88.00
2018-07-30T03:26:21.311Z,96.00
2018-07-30T03:27:21.228Z,104.00
2018-07-30T03:28:21.172Z,116.00
2018-07-30T03:29:21.056Z,128.00
2018-07-30T03:30:20.970Z,144.00
2018-07-30T03:31:20.881Z,156.00
2018-07-30T03:32:20.793Z,172.00
2018-07-30T03:33:20.738Z,184.00
2018-07-30T03:34:20.626Z,200.00
2018-07-30T03:35:20.536Z,212.00
2018-07-30T03:36:20.448Z,228.00
2018-07-30T03:37:20.364Z,244.00
2018-07-30T03:38:20.313Z,260.00
2018-07-30T03:39:20.192Z,280.00
2018-07-30T03:40:20.140Z,296.00
2018-07-30T03:41:20.021Z,312.00
2018-07-30T03:42:20.026Z,332.00
2018-07-30T03:43:19.879Z,344.00
2018-07-30T03:44:19.763Z,364.00
2018-07-30T03:45:19.674Z,380.00
2018-07-30T03:46:19.595Z,404.00
2018-07-30T03:47:19.503Z,420.00
2018-07-30T03:48:19.445Z,440.00
2018-07-30T03:49:19.334Z,460.00
2018-07-30T03:50:19.247Z,480.00
2018-07-30T03:51:19.159Z,500.00
2018-07-30T03:52:19.075Z,520.00
2018-07-30T03:53:19.014Z,544.00
2018-07-30T03:54:18.902Z,568.00
2018-07-30T03:55:18.812Z,596.00
2018-07-30T03:56:18.731Z,628.00
2018-07-30T03:57:18.643Z,668.00
2018-07-30T03:58:18.589Z,712.00
2018-07-30T03:59:18.472Z,752.00
2018-07-30T04:00:18.435Z,788.00
2018-07-30T04:01:18.300Z,816.00
2018-07-30T04:02:18.211Z,856.00
2018-07-30T04:03:18.159Z,908.00
2018-07-30T04:04:18.058Z,964.00
2018-07-30T04:05:17.955Z,1032.00
2018-07-30T04:06:17.882Z,1112.00
2018-07-30T04:07:17.781Z,1196.00
2018-07-30T04:08:17.724Z,1288.00
2018-07-30T04:09:17.612Z,1364.00
2018-07-30T04:10:17.524Z,1432.00
2018-07-30T04:11:17.436Z,1492.00
2018-07-30T04:12:17.352Z,1556.00
2018-07-30T04:13:17.296Z,1620.00
2018-07-30T04:14:17.180Z,1680.00
2018-07-30T04:15:17.103Z,1748.00
2018-07-30T04:16:17.006Z,1824.00
2018-07-30T04:17:16.920Z,1892.00
2018-07-30T04:18:16.836Z,1940.00
2018-07-30T04:19:16.782Z,1984.00
2018-07-30T04:20:16.952Z,2020.00
2018-07-30T04:21:16.578Z,2044.00
2018-07-30T04:22:16.527Z,2064.00
2018-07-30T04:23:16.405Z,2092.00
2018-07-30T04:24:16.345Z,2128.00
2018-07-30T04:25:16.233Z,2184.00
2018-07-30T04:26:16.146Z,2248.00
2018-07-30T04:27:16.061Z,2312.00
2018-07-30T04:28:15.974Z,2376.00
2018-07-30T04:29:15.918Z,2440.00
2018-07-30T04:30:15.804Z,2568.00
2018-07-30T04:31:15.715Z,2720.00
2018-07-30T04:32:15.630Z,2624.00
2018-07-30T04:33:15.545Z,2656.00
2018-07-30T04:34:15.578Z,2704.00
2018-07-30T04:35:15.368Z,2744.00
2018-07-30T04:36:15.282Z,2784.00
2018-07-30T04:37:15.200Z,2812.00
2018-07-30T04:38:15.113Z,2820.00
2018-07-30T04:39:15.053Z,2812.00
2018-07-30T04:40:14.937Z,2800.00
2018-07-30T04:41:14.947Z,2776.00
2018-07-30T04:42:14.765Z,2772.00
2018-07-30T04:43:14.680Z,2800.00
2018-07-30T04:44:14.626Z,2840.00
2018-07-30T04:45:14.507Z,2884.00
2018-07-30T04:46:14.421Z,2928.00
2018-07-30T04:47:14.336Z,2980.00
2018-07-30T04:48:14.357Z,3056.00
2018-07-30T04:49:14.235Z,3180.00
2018-07-30T04:50:14.103Z,3264.00
2018-07-30T04:51:13.988Z,3316.00
2018-07-30T04:52:13.910Z,3556.00
2018-07-30T04:53:13.820Z,3560.00
2018-07-30T04:54:13.761Z,3892.00
2018-07-30T04:55:13.739Z,4040.00
2018-07-30T04:56:13.560Z,3712.00
2018-07-30T04:57:13.470Z,3728.00
2018-07-30T04:58:13.388Z,3812.00
2018-07-30T04:59:13.331Z,3984.00
2018-07-30T05:00:13.215Z,4584.00
2018-07-30T05:01:13.128Z,4464.00
2018-07-30T05:02:13.137Z,3960.00
2018-07-30T05:03:12.956Z,4192.00
2018-07-30T05:04:12.897Z,4624.00
2018-07-30T05:05:12.784Z,4768.00
2018-07-30T05:06:12.697Z,4296.00
2018-07-30T05:07:12.613Z,3852.00
2018-07-30T05:08:12.525Z,3824.00
2018-07-30T05:09:12.560Z,3860.00
2018-07-30T05:10:12.355Z,4312.00
2018-07-30T05:11:12.320Z,4276.00
2018-07-30T05:12:12.182Z,4196.00
2018-07-30T05:13:12.095Z,4132.00
2018-07-30T05:14:12.040Z,4640.00
2018-07-30T05:15:11.924Z,4952.00
2018-07-30T05:16:11.931Z,5016.00
2018-07-30T05:17:11.755Z,4900.00
2018-07-30T05:18:11.667Z,4508.00
2018-07-30T05:19:11.673Z,4316.00
2018-07-30T05:20:11.496Z,4296.00
2018-07-30T05:21:11.425Z,4412.00
2018-07-30T05:22:11.321Z,4512.00
2018-07-30T05:23:11.332Z,4496.00
2018-07-30T05:24:11.180Z,4520.00
2018-07-30T05:25:11.068Z,4736.00
2018-07-30T05:26:10.982Z,4776.00
2018-07-30T05:27:10.895Z,4764.00
2018-07-30T05:28:10.811Z,4976.00
2018-07-30T05:29:10.754Z,5044.00
2018-07-30T05:30:10.636Z,5148.00
2018-07-30T05:31:10.550Z,5024.00
2018-07-30T05:32:10.466Z,4904.00
2018-07-30T05:33:10.379Z,4992.00
2018-07-30T05:34:10.325Z,5192.00
2018-07-30T05:35:10.210Z,5224.00
2018-07-30T05:36:10.123Z,5392.00
2018-07-30T05:37:10.137Z,5732.00
2018-07-30T05:38:09.953Z,5996.00
2018-07-30T05:39:09.898Z,5752.00
2018-07-30T05:40:09.782Z,5396.00
2018-07-30T05:41:09.696Z,5776.00
2018-07-30T05:42:09.609Z,5916.00
2018-07-30T05:43:09.532Z,5940.00
2018-07-30T05:44:09.473Z,5764.00
2018-07-30T05:45:09.356Z,6080.00
2018-07-30T05:46:09.274Z,6068.00
2018-07-30T05:47:09.184Z,6008.00
2018-07-30T05:48:09.099Z,6124.00
2018-07-30T05:49:09.044Z,6096.00
2018-07-30T05:50:08.985Z,6240.00
2018-07-30T05:51:08.843Z,6808.00
2018-07-30T05:52:08.759Z,7392.00
2018-07-30T05:53:08.677Z,8060.00
2018-07-30T05:54:08.597Z,8128.00
2018-07-30T05:55:08.532Z,6608.00
2018-07-30T05:56:08.417Z,6520.00
2018-07-30T05:57:08.331Z,6624.00
2018-07-30T05:58:08.248Z,7140.00
2018-07-30T05:59:08.165Z,7344.00
2018-07-30T06:00:08.107Z,6548.00
2018-07-30T06:01:07.994Z,6812.00
2018-07-30T06:02:07.909Z,6852.00
2018-07-30T06:03:07.825Z,6852.00
2018-07-30T06:04:07.739Z,6676.00
2018-07-30T06:05:07.682Z,6360.00
2018-07-30T06:06:07.570Z,6736.00
2018-07-30T06:07:07.488Z,7564.00
2018-07-30T06:08:07.398Z,8460.00
2018-07-30T06:09:07.318Z,9028.00
2018-07-30T06:10:07.266Z,10244.00
2018-07-30T06:11:07.147Z,10352.00
2018-07-30T06:12:07.059Z,6680.00
2018-07-30T06:13:06.978Z,6596.00
2018-07-30T06:14:06.894Z,6688.00
2018-07-30T06:15:06.838Z,6740.00
2018-07-30T06:16:06.727Z,6992.00
2018-07-30T06:17:06.639Z,6992.00
2018-07-30T06:18:06.556Z,6736.00
2018-07-30T06:19:06.468Z,6684.00
2018-07-30T06:20:06.417Z,6732.00
2018-07-30T06:21:06.301Z,6760.00
2018-07-30T06:22:06.221Z,6792.00
2018-07-30T06:23:06.132Z,6844.00
2018-07-30T06:24:06.049Z,6904.00
2018-07-30T06:25:05.996Z,6984.00
2018-07-30T06:26:05.881Z,7032.00
2018-07-30T06:27:05.797Z,7120.00
2018-07-30T06:28:05.711Z,7284.00
2018-07-30T06:29:05.629Z,8384.00
2018-07-30T06:30:05.574Z,8464.00
2018-07-30T06:31:05.459Z,9456.00
2018-07-30T06:32:05.379Z,10968.00
2018-07-30T06:33:05.291Z,8796.00
2018-07-30T06:34:05.208Z,8044.00
2018-07-30T06:35:05.155Z,7612.00
2018-07-30T06:36:05.039Z,7932.00
2018-07-30T06:37:04.955Z,8680.00
2018-07-30T06:38:04.873Z,8560.00
2018-07-30T06:39:04.787Z,7856.00
2018-07-30T06:40:04.732Z,7864.00
2018-07-30T06:41:04.617Z,8056.00
2018-07-30T06:42:04.541Z,8504.00
2018-07-30T06:43:04.453Z,8744.00
2018-07-30T06:44:04.371Z,10128.00
2018-07-30T06:45:04.316Z,12756.00
2018-07-30T06:46:04.201Z,17440.00
2018-07-30T06:47:04.118Z,25984.00
2018-07-30T06:48:04.051Z,29536.00
2018-07-30T06:49:03.950Z,29984.00
2018-07-30T06:50:03.898Z,30912.00
2018-07-30T06:51:03.781Z,31712.00
2018-07-30T06:52:03.701Z,31744.00
2018-07-30T06:53:03.615Z,31360.00
2018-07-30T06:54:03.529Z,31264.00
2018-07-30T06:55:03.479Z,31552.00
2018-07-30T06:56:03.372Z,31936.00
2018-07-30T06:57:03.284Z,32864.00
2018-07-30T06:58:03.204Z,33824.00
2018-07-30T06:59:03.120Z,34208.00
2018-07-30T07:00:03.072Z,34176.00
2018-07-30T07:01:02.963Z,34432.00
2018-07-30T07:02:02.924Z,35072.00
2018-07-30T07:03:02.794Z,37024.00
2018-07-30T07:04:02.713Z,39936.00
2018-07-30T07:05:02.667Z,40832.00
2018-07-30T07:06:02.553Z,41248.00
2018-07-30T07:07:02.567Z,45056.00
2018-07-30T07:08:02.393Z,48384.00
2018-07-30T07:09:02.313Z,46816.00
2018-07-30T07:10:02.262Z,43552.00
2018-07-30T07:11:02.156Z,44928.00
2018-07-30T07:12:02.073Z,48320.00
2018-07-30T07:13:01.994Z,51936.00
2018-07-30T07:14:01.915Z,47200.00
2018-07-30T07:15:01.868Z,40448.00
2018-07-30T07:16:01.765Z,37312.00
2018-07-30T07:17:01.697Z,37600.00
2018-07-30T07:18:01.601Z,37344.00
2018-07-30T07:19:01.519Z,37728.00
2018-07-30T07:20:01.444Z,37920.00
2018-07-30T07:21:01.485Z,38208.00
2018-07-30T07:22:01.357Z,38240.00
2018-07-30T07:23:01.208Z,38112.00
2018-07-30T07:24:01.127Z,38432.00
2018-07-30T07:25:01.065Z,38432.00
2018-07-30T07:26:01.004Z,38528.00
2018-07-30T07:27:00.928Z,39392.00
2018-07-30T07:28:00.986Z,40448.00
2018-07-30T07:29:00.741Z,41152.00
2018-07-30T07:30:00.666Z,41408.00
2018-07-30T07:31:00.619Z,41184.00
2018-07-30T07:32:00.510Z,41632.00
2018-07-30T07:33:00.430Z,42240.00
2018-07-30T07:34:00.356Z,43360.00
2018-07-30T07:35:00.408Z,44032.00
2018-07-30T07:36:00.235Z,45440.00
2018-07-30T07:37:00.127Z,46848.00
2018-07-30T07:38:00.052Z,47584.00
2018-07-30T07:38:59.972Z,44768.00
2018-07-30T07:39:59.899Z,42752.00
2018-07-30T07:40:59.853Z,39552.00
2018-07-30T07:41:59.836Z,40704.00
2018-07-30T07:42:59.670Z,39936.00
2018-07-30T07:43:59.589Z,43744.00
2018-07-30T07:44:59.564Z,44736.00
2018-07-30T07:45:59.507Z,44896.00
2018-07-30T07:46:59.364Z,43328.00
2018-07-30T07:47:59.290Z,46208.00
2018-07-30T07:48:59.322Z,45856.00
2018-07-30T07:49:59.163Z,51168.00
2018-07-30T07:50:59.210Z,56736.00
2018-07-30T07:51:58.988Z,61024.00
2018-07-30T07:52:58.913Z,60640.00
2018-07-30T07:53:58.838Z,53920.00
2018-07-30T07:54:58.758Z,54336.00
2018-07-30T07:55:58.808Z,54688.00
2018-07-30T07:56:58.607Z,56064.00
2018-07-30T07:57:58.535Z,61600.00
2018-07-30T07:58:58.460Z,59584.00
2018-07-30T07:59:58.388Z,54464.00
2018-07-30T08:00:58.339Z,54816.00
2018-07-30T08:01:58.236Z,52800.00
2018-07-30T08:02:58.251Z,58848.00
2018-07-30T08:03:58.101Z,59808.00
2018-07-30T08:04:58.010Z,58016.00
2018-07-30T08:05:57.967Z,54432.00
2018-07-30T08:06:57.861Z,60768.00
2018-07-30T08:07:57.788Z,57440.00
2018-07-30T08:08:57.713Z,55616.00
2018-07-30T08:09:57.843Z,59328.00
2018-07-30T08:10:57.631Z,64448.00
2018-07-30T08:11:57.487Z,64512.00
2018-07-30T08:12:57.413Z,60160.00
2018-07-30T08:13:57.350Z,62016.00
2018-07-30T08:14:57.263Z,64608.00
2018-07-30T08:15:57.221Z,66528.00
2018-07-30T08:16:57.122Z,64448.00
2018-07-30T08:17:57.046Z,65024.00
2018-07-30T08:18:56.966Z,65056.00
2018-07-30T08:19:56.892Z,65120.00
2018-07-30T08:20:56.848Z,69792.00
2018-07-30T08:21:56.746Z,74240.00
2018-07-30T08:22:56.672Z,75328.00
2018-07-30T08:23:56.595Z,70272.00
2018-07-30T08:24:56.522Z,69920.00
2018-07-30T08:25:56.479Z,73344.00
2018-07-30T08:26:56.375Z,75456.00
2018-07-30T08:27:56.317Z,74048.00
2018-07-30T08:28:56.229Z,75968.00
2018-07-30T08:29:56.151Z,73472.00
2018-07-30T08:30:56.144Z,75264.00
2018-07-30T08:31:56.005Z,73472.00
2018-07-30T08:32:55.965Z,74784.00
2018-07-30T08:33:55.856Z,74304.00
2018-07-30T08:34:55.787Z,67296.00
2018-07-30T08:35:55.738Z,64896.00
2018-07-30T08:36:55.634Z,72064.00
2018-07-30T08:37:55.558Z,74688.00
2018-07-30T08:38:55.485Z,73952.00
2018-07-30T08:39:55.410Z,75040.00
2018-07-30T08:40:55.366Z,74624.00
2018-07-30T08:41:55.262Z,73248.00
2018-07-30T08:42:55.189Z,74464.00
2018-07-30T08:43:55.116Z,77760.00
2018-07-30T08:44:55.039Z,71904.00
2018-07-30T08:45:54.996Z,71232.00
2018-07-30T08:46:54.890Z,71936.00
2018-07-30T08:47:54.818Z,75936.00
2018-07-30T08:48:54.787Z,79488.00
2018-07-30T08:49:54.669Z,79008.00
2018-07-30T08:50:54.627Z,81536.00
2018-07-30T08:51:54.523Z,80672.00
2018-07-30T08:52:54.471Z,80576.00
2018-07-30T08:53:54.373Z,82368.00
2018-07-30T08:54:54.302Z,81056.00
2018-07-30T08:55:54.231Z,81088.00
2018-07-30T08:56:54.187Z,81536.00
2018-07-30T08:57:54.081Z,84768.00
2018-07-30T08:58:54.007Z,85184.00
2018-07-30T08:59:53.933Z,85824.00
2018-07-30T09:00:53.864Z,83360.00
2018-07-30T09:01:53.821Z,81312.00
2018-07-30T09:02:53.760Z,80480.00
2018-07-30T09:03:53.642Z,78112.00
2018-07-30T09:04:53.605Z,76544.00
2018-07-30T09:05:53.494Z,78272.00
2018-07-30T09:06:53.452Z,86208.00
2018-07-30T09:07:53.345Z,84320.00
2018-07-30T09:08:53.272Z,84896.00
2018-07-30T09:09:53.202Z,86048.00
2018-07-30T09:10:53.129Z,85248.00
2018-07-30T09:11:53.083Z,83232.00
2018-07-30T09:12:53.103Z,87360.00
2018-07-30T09:13:52.907Z,90784.00
2018-07-30T09:14:52.831Z,89920.00
2018-07-30T09:15:52.760Z,88768.00
2018-07-30T09:16:52.715Z,85376.00
2018-07-30T09:17:52.614Z,92544.00
2018-07-30T09:18:52.539Z,89184.00
2018-07-30T09:19:52.467Z,95904.00
2018-07-30T09:20:52.392Z,91808.00
2018-07-30T09:21:52.353Z,89664.00
2018-07-30T09:22:52.254Z,80800.00
2018-07-30T09:23:52.175Z,81472.00
2018-07-30T09:24:52.104Z,74368.00
2018-07-30T09:25:52.030Z,76928.00
2018-07-30T09:26:52.048Z,78720.00
2018-07-30T09:27:51.883Z,77920.00
2018-07-30T09:28:51.809Z,83616.00
2018-07-30T09:29:51.750Z,77312.00
2018-07-30T09:30:51.670Z,84032.00
2018-07-30T09:31:51.624Z,92320.00
2018-07-30T09:32:51.698Z,87584.00
2018-07-30T09:33:51.451Z,87360.00
2018-07-30T09:34:51.374Z,92064.00
2018-07-30T09:35:51.303Z,92896.00
2018-07-30T09:36:51.260Z,91296.00
2018-07-30T09:37:51.158Z,89024.00
2018-07-30T09:38:51.225Z,88288.00
2018-07-30T09:39:51.118Z,88768.00
2018-07-30T09:40:50.940Z,88864.00
2018-07-30T09:41:50.906Z,89152.00
2018-07-30T09:42:50.798Z,94272.00
2018-07-30T09:43:50.725Z,110976.00
2018-07-30T09:44:50.684Z,110528.00
2018-07-30T09:45:50.580Z,111008.00
2018-07-30T09:46:50.636Z,113280.00
2018-07-30T09:47:50.436Z,114560.00
2018-07-30T09:48:50.367Z,109984.00
2018-07-30T09:49:50.293Z,103712.00
2018-07-30T09:50:50.222Z,97120.00
2018-07-30T09:51:50.180Z,100416.00
2018-07-30T09:52:50.077Z,99200.00
2018-07-30T09:53:50.098Z,95616.00
2018-07-30T09:54:49.931Z,97952.00
2018-07-30T09:55:49.865Z,99648.00
2018-07-30T09:56:49.820Z,91808.00
2018-07-30T09:57:49.719Z,92832.00
2018-07-30T09:58:49.649Z,93312.00
2018-07-30T09:59:49.573Z,91616.00
2018-07-30T10:00:49.596Z,91232.00
2018-07-30T10:01:49.460Z,92160.00
2018-07-30T10:02:49.359Z,89600.00
2018-07-30T10:03:49.288Z,83840.00
2018-07-30T10:04:49.215Z,93184.00
2018-07-30T10:05:49.144Z,93632.00
2018-07-30T10:06:49.100Z,97760.00
2018-07-30T10:07:49.111Z,97152.00
2018-07-30T10:08:48.930Z,92224.00
2018-07-30T10:09:48.860Z,103168.00
2018-07-30T10:10:48.787Z,95680.00
2018-07-30T10:11:48.763Z,98816.00
2018-07-30T10:12:48.646Z,107776.00
2018-07-30T10:13:48.575Z,90528.00
2018-07-30T10:14:48.593Z,88064.00
2018-07-30T10:15:48.433Z,86208.00
2018-07-30T10:16:48.392Z,86976.00
2018-07-30T10:17:48.322Z,88544.00
2018-07-30T10:18:48.212Z,84352.00
2018-07-30T10:19:48.145Z,49760.00
2018-07-30T10:20:48.071Z,43776.00
2018-07-30T10:21:48.112Z,21248.00
2018-07-30T10:22:47.934Z,25600.00
2018-07-30T10:23:47.924Z,67040.00
2018-07-30T10:24:47.789Z,93344.00
2018-07-30T10:25:47.717Z,98272.00
2018-07-30T10:26:47.675Z,93632.00
2018-07-30T10:27:47.574Z,99712.00
2018-07-30T10:28:47.500Z,105568.00
2018-07-30T10:29:47.431Z,102880.00
2018-07-30T10:30:47.389Z,110592.00
2018-07-30T10:31:47.290Z,106016.00
2018-07-30T10:32:47.246Z,104288.00
2018-07-30T10:33:47.141Z,113088.00
2018-07-30T10:34:47.086Z,111936.00
2018-07-30T10:35:46.998Z,107360.00
2018-07-30T10:36:46.959Z,104576.00
2018-07-30T10:37:46.855Z,109760.00
2018-07-30T10:38:46.784Z,114240.00
2018-07-30T10:39:46.775Z,115584.00
2018-07-30T10:40:46.641Z,114048.00
2018-07-30T10:41:46.569Z,113728.00
2018-07-30T10:42:46.528Z,126304.00
2018-07-30T10:43:46.423Z,122016.00
2018-07-30T10:44:46.352Z,112672.00
2018-07-30T10:45:46.284Z,115040.00
2018-07-30T10:46:46.216Z,111168.00
2018-07-30T10:47:46.183Z,102464.00
2018-07-30T10:48:46.067Z,98912.00
2018-07-30T10:49:45.996Z,105824.00
2018-07-30T10:50:45.921Z,106144.00
2018-07-30T10:51:45.863Z,103968.00
2018-07-30T10:52:45.811Z,101824.00
2018-07-30T10:53:45.766Z,102144.00
2018-07-30T10:54:45.638Z,102048.00
2018-07-30T10:55:45.567Z,104224.00
2018-07-30T10:56:45.497Z,101280.00
2018-07-30T10:57:45.456Z,108256.00
2018-07-30T10:58:45.355Z,101664.00
2018-07-30T10:59:45.285Z,84768.00
2018-07-30T11:00:45.212Z,86144.00
2018-07-30T11:01:45.140Z,84800.00
2018-07-30T11:02:45.098Z,100896.00
2018-07-30T11:03:45.300Z,87200.00
2018-07-30T11:04:44.926Z,94720.00
2018-07-30T11:05:44.857Z,89376.00
2018-07-30T11:06:44.784Z,102784.00
2018-07-30T11:07:44.759Z,110432.00
2018-07-30T11:08:44.647Z,104064.00
2018-07-30T11:09:44.602Z,106528.00
2018-07-30T11:10:44.499Z,112064.00
2018-07-30T11:11:44.429Z,48864.00
2018-07-30T11:12:44.391Z,80128.00
2018-07-30T11:13:44.285Z,64224.00
2018-07-30T11:14:44.240Z,91168.00
2018-07-30T11:15:44.145Z,61504.00
2018-07-30T11:16:44.077Z,94880.00
2018-07-30T11:17:44.130Z,104608.00
2018-07-30T11:18:43.930Z,102336.00
2018-07-30T11:19:43.865Z,105632.00
2018-07-30T11:20:43.813Z,84960.00
2018-07-30T11:21:43.852Z,95712.00
2018-07-30T11:22:43.675Z,98688.00
2018-07-30T11:23:43.573Z,104000.00
2018-07-30T11:24:43.499Z,102240.00
2018-07-30T11:25:43.434Z,109120.00
2018-07-30T11:26:43.358Z,112320.00
2018-07-30T11:27:43.317Z,113376.00
2018-07-30T11:28:43.214Z,109312.00
2018-07-30T11:29:43.144Z,109056.00
2018-07-30T11:30:43.071Z,101216.00
2018-07-30T11:31:43.000Z,100064.00
2018-07-30T11:32:42.964Z,107648.00
2018-07-30T11:33:42.862Z,101792.00
2018-07-30T11:34:42.791Z,98752.00
2018-07-30T11:35:42.719Z,105888.00
2018-07-30T11:36:42.646Z,109472.00
2018-07-30T11:37:42.607Z,108064.00
2018-07-30T11:38:42.505Z,108992.00
2018-07-30T11:39:42.447Z,98048.00
2018-07-30T11:40:42.365Z,68896.00
2018-07-30T11:41:42.292Z,71968.00
2018-07-30T11:42:42.252Z,79104.00
2018-07-30T11:43:42.248Z,92192.00
2018-07-30T11:44:42.086Z,102752.00
2018-07-30T11:45:42.016Z,105088.00
2018-07-30T11:46:41.940Z,100256.00
2018-07-30T11:47:41.900Z,96128.00
2018-07-30T11:48:41.819Z,108160.00
2018-07-30T11:49:41.731Z,106656.00
2018-07-30T11:50:41.659Z,25120.00
2018-07-30T11:51:41.592Z,24672.00
2018-07-30T11:52:41.543Z,24800.00
2018-07-30T11:53:41.498Z,24832.00
2018-07-30T11:54:41.380Z,25760.00
2018-07-30T11:55:41.310Z,26848.00
2018-07-30T11:56:41.235Z,26080.00
2018-07-30T11:57:41.164Z,25728.00
2018-07-30T11:58:41.125Z,23776.00
2018-07-30T11:59:41.021Z,22528.00
2018-07-30T12:00:40.948Z,21120.00
2018-07-30T12:01:40.911Z,19424.00
2018-07-30T12:02:40.804Z,18720.00
2018-07-30T12:03:40.760Z,17664.00
2018-07-30T12:04:40.657Z,16124.00
2018-07-30T12:05:40.587Z,15124.00
2018-07-30T12:06:40.511Z,13980.00
2018-07-30T12:07:40.439Z,13220.00
2018-07-30T12:08:40.436Z,13168.00
2018-07-30T12:09:40.291Z,13648.00
2018-07-30T12:10:40.215Z,14372.00
2018-07-30T12:11:40.143Z,14896.00
2018-07-30T12:12:40.069Z,14832.00